Data for 03/08/2016

Time Sea-Level Adjusted Pressure Absolute Pressure Temperature Relative Humidity Dew Point   
(mb) (inHg) (mb) (inHg) (C) (F) (%) (C) (F)
00:05 1012 29.88 842 24.86 0.2 32.3 60 -6.7 19.9
00:10 1012 29.88 842 24.86 -0 32 62 -6.5 20.3
00:15 1013 29.91 842 24.86 -0.3 31.4 62 -6.7 19.9
00:20 1012 29.88 842 24.86 -0.4 31.2 62 -6.9 19.6
00:25 1013 29.91 842 24.86 -0.3 31.4 60 -7.1 19.1
00:30 1013 29.91 842 24.86 -0.2 31.7 59 -7.2 19
00:35 1012 29.88 842 24.86 -0.1 31.9 59 -7.2 19
00:40 1012 29.88 842 24.86 -0 31.9 59 -7 19.3
00:45 1012 29.88 842 24.86 -0.6 31 63 -6.8 19.7
00:50 1012 29.88 842 24.86 -1 30.1 65 -6.9 19.6
00:55 1012 29.88 842 24.86 -1.3 29.7 64 -7.2 19.1
01:00 1012 29.88 842 24.86 -1.3 29.7 64 -7.3 18.9
01:05 1012 29.88 842 24.86 -1.2 29.8 62 -7.5 18.5
01:10 1012 29.88 841 24.83 -1.2 29.9 64 -7.2 19
01:15 1012 29.88 842 24.86 -1.4 29.5 65 -7.2 19.1
01:20 1012 29.88 842 24.86 -1.7 29 66 -7.1 19.2
01:25 1012 29.88 842 24.86 -1.8 28.8 67 -7.1 19.2
01:30 1012 29.88 841 24.83 -1.8 28.7 67 -7.2 19
01:35 1012 29.88 842 24.86 -1.8 28.8 66 -7.2 19
01:40 1012 29.88 842 24.86 -1.7 28.9 67 -7.1 19.2
01:45 1012 29.88 842 24.86 -1.8 28.7 67 -7.2 19.1
01:50 1012 29.88 842 24.86 -1.9 28.6 67 -7.2 19
01:55 1012 29.88 841 24.83 -2 28.4 68 -7.2 19.1
02:00 1012 29.88 841 24.83 -2 28.4 67 -7.3 18.9
02:05 1012 29.88 842 24.86 -2 28.5 66 -7.6 18.4
02:10 1012 29.88 842 24.86 -1.8 28.8 64 -7.8 18
02:15 1012 29.88 842 24.86 -1.4 29.4 62 -7.9 17.8
02:20 1012 29.88 842 24.86 -1.3 29.7 62 -7.6 18.4
02:25 1012 29.88 841 24.83 -1.4 29.6 62 -7.7 18.1
02:30 1012 29.88 842 24.86 -1.3 29.7 61 -8 17.7
02:35 1012 29.88 842 24.86 -1.3 29.7 61 -7.8 17.9
02:40 1012 29.88 842 24.86 -1.4 29.5 61 -7.9 17.8
02:45 1012 29.88 842 24.86 -1.5 29.3 61 -8.1 17.3
02:50 1012 29.88 842 24.86 -1.6 29.1 63 -7.7 18.1
02:55 1012 29.88 841 24.83 -1.9 28.6 64 -7.8 18
03:00 1012 29.88 841 24.83 -1.9 28.6 62 -8.2 17.2
03:05 1012 29.88 841 24.83 -1.5 29.3 60 -8.2 17.2
03:10 1012 29.88 841 24.83 -1.4 29.5 60 -8.2 17.2
03:15 1012 29.88 841 24.83 -1.5 29.4 61 -8 17.6
03:20 1012 29.88 841 24.83 -1.7 28.9 62 -8.1 17.5
03:25 1012 29.88 841 24.83 -1.8 28.8 61 -8.3 17
03:30 1012 29.88 841 24.83 -1.7 29 61 -8.2 17.2
03:35 1012 29.88 841 24.83 -1.7 29 61 -8.2 17.2
03:40 1012 29.88 841 24.83 -1.5 29.2 60 -8.4 17
03:45 1012 29.88 841 24.83 -1.3 29.6 59 -8.5 16.8
03:50 1012 29.88 841 24.83 -1.3 29.7 58 -8.4 16.9
03:55 1012 29.88 841 24.83 -1.3 29.7 59 -8.2 17.2
04:00 1012 29.88 841 24.83 -1.4 29.5 60 -8.1 17.3
04:05 1012 29.88 841 24.83 -1.6 29.2 61 -8.2 17.3
04:10 1012 29.88 841 24.83 -1.6 29.2 59 -8.5 16.7
04:15 1012 29.88 841 24.83 -1.3 29.6 58 -8.6 16.5
04:20 1012 29.88 841 24.83 -1.1 30 57 -8.7 16.4
04:25 1012 29.88 841 24.83 -1 30.2 56 -8.7 16.4
04:30 1012 29.88 841 24.83 -1 30.2 56 -8.6 16.5
04:35 1012 29.88 841 24.83 -1 30.1 57 -8.6 16.5
04:40 1012 29.88 842 24.86 -1.1 30 58 -8.4 16.9
04:45 1012 29.88 842 24.86 -1.2 29.8 58 -8.4 16.9
04:50 1012 29.88 842 24.86 -1.3 29.7 59 -8.4 17
04:55 1012 29.88 842 24.86 -1.3 29.7 58 -8.6 16.5
05:00 1013 29.91 842 24.86 -1.1 30.1 56 -8.7 16.3
05:05 1013 29.91 842 24.86 -0.9 30.3 57 -8.5 16.7
05:10 1013 29.91 842 24.86 -0.9 30.3 56 -8.7 16.4
05:15 1013 29.91 842 24.86 -0.9 30.3 56 -8.6 16.6
05:20 1013 29.91 842 24.86 -1.2 29.8 58 -8.5 16.7
05:25 1013 29.91 842 24.86 -1.3 29.7 59 -8.4 16.9
05:30 1013 29.91 842 24.86 -1.4 29.5 61 -8 17.6
05:35 1013 29.91 842 24.86 -1.6 29.2 63 -7.7 18.1
05:40 1013 29.91 842 24.86 -1.8 28.8 64 -7.7 18.1
05:45 1013 29.91 842 24.86 -2 28.3 65 -7.7 18.1
05:50 1013 29.91 842 24.86 -2.2 28 66 -7.8 17.9
05:55 1013 29.91 842 24.86 -2.2 28.1 65 -7.8 17.9
06:00 1013 29.91 842 24.86 -2.1 28.3 65 -7.9 17.9
06:05 1013 29.91 842 24.86 -1.9 28.5 65 -7.8 18
06:10 1013 29.91 842 24.86 -1.9 28.5 65 -7.7 18.2
06:15 1013 29.91 842 24.86 -1.9 28.6 65 -7.6 18.3
06:20 1013 29.91 842 24.86 -2 28.3 66 -7.5 18.5
06:25 1013 29.91 842 24.86 -2.2 28 67 -7.5 18.5
06:30 1013 29.91 842 24.86 -2.3 27.9 68 -7.5 18.5
06:35 1013 29.91 842 24.86 -2.4 27.8 68 -7.5 18.6
06:40 1013 29.91 843 24.89 -2.4 27.6 68 -7.5 18.5
06:45 1013 29.91 843 24.89 -2.5 27.4 69 -7.4 18.6
06:50 1013 29.91 843 24.89 -2.6 27.2 69 -7.5 18.5
06:55 1013 29.91 843 24.89 -2.6 27.4 68 -7.7 18.2
07:00 1014 29.94 843 24.89 -2.2 28 66 -7.8 18
07:05 1014 29.94 843 24.89 -2 28.5 65 -7.7 18.1
07:10 1014 29.94 843 24.89 -1.8 28.7 65 -7.6 18.3
07:15 1014 29.94 843 24.89 -1.8 28.7 65 -7.6 18.4
07:20 1014 29.94 843 24.89 -1.9 28.6 66 -7.4 18.7
07:25 1014 29.94 843 24.89 -2 28.4 67 -7.4 18.7
07:30 1014 29.94 843 24.89 -2 28.5 66 -7.5 18.5
07:35 1014 29.94 843 24.89 -1.9 28.5 67 -7.3 18.8
07:40 1014 29.94 843 24.89 -2.1 28.2 68 -7.3 18.8
07:45 1014 29.94 843 24.89 -2.3 27.9 69 -7.2 19
07:50 1014 29.94 843 24.89 -2.4 27.6 70 -7.2 19
07:55 1014 29.94 843 24.89 -2.6 27.3 71 -7.3 18.9
08:00 1014 29.94 843 24.89 -2.6 27.2 70 -7.3 18.8
08:05 1014 29.94 843 24.89 -2.6 27.4 70 -7.2 19
08:10 1014 29.94 843 24.89 -2.3 27.9 69 -7.2 19
08:15 1014 29.94 843 24.89 -2 28.3 68 -7.2 19.1
08:20 1014 29.94 843 24.89 -2.1 28.2 69 -7 19.4
08:25 1014 29.94 843 24.89 -2.2 28.1 69 -7 19.3
08:30 1014 29.94 843 24.89 -2.3 27.9 68 -7.4 18.7
08:35 1014 29.94 843 24.89 -2 28.4 67 -7.3 18.9
08:40 1014 29.94 843 24.89 -1.4 29.5 65 -7.2 19
08:45 1014 29.94 843 24.89 -1 30.2 64 -6.9 19.6
08:50 1014 29.94 843 24.89 -0.4 31.2 62 -6.9 19.6
08:55 1014 29.94 843 24.89 -0.4 31.3 63 -6.5 20.3
09:00 1014 29.94 843 24.89 -0 31.9 62 -6.4 20.4
09:05 1014 29.94 843 24.89 1 33.7 60 -6 21.2
09:10 1014 29.94 843 24.89 1.3 34.4 59 -5.8 21.5
09:15 1014 29.94 843 24.89 1.7 35.1 57 -6 21.2
09:20 1014 29.94 843 24.89 2 35.7 56 -5.8 21.6
09:25 1014 29.94 843 24.89 2.2 36 56 -5.6 22
09:30 1014 29.94 843 24.89 1.8 35.3 59 -5.5 22.1
09:35 1014 29.94 843 24.89 2 35.5 57 -5.7 21.7
09:40 1014 29.94 843 24.89 2 35.5 60 -5.1 22.9
09:45 1014 29.94 843 24.89 2.1 35.7 58 -5.4 22.2
09:50 1014 29.94 843 24.89 2.4 36.3 57 -5.3 22.5
09:55 1014 29.94 843 24.89 2.4 36.2 57 -5.3 22.5
10:00 1014 29.94 843 24.89 2.4 36.2 57 -5.4 22.3
10:05 1014 29.94 843 24.89 2.7 36.9 56 -5.2 22.6
10:10 1014 29.94 843 24.89 3.3 38 53 -5.3 22.4
10:15 1014 29.94 843 24.89 3.4 38.1 54 -5 23.1
10:20 1014 29.94 843 24.89 2.8 37 58 -4.7 23.5
10:25 1014 29.94 843 24.89 3.3 37.9 53 -5.5 22.1
10:30 1014 29.94 843 24.89 3.5 38.2 53 -5.2 22.6
10:35 1014 29.94 843 24.89 3.7 38.7 53 -5 23.1
10:40 1014 29.94 843 24.89 3.4 38.1 55 -4.9 23.2
10:45 1014 29.94 843 24.89 3.1 37.6 55 -5.1 22.8
10:50 1014 29.94 843 24.89 3.5 38.3 56 -4.5 23.9
10:55 1014 29.94 843 24.89 3.5 38.2 56 -4.5 23.8
11:00 1014 29.94 843 24.89 3.6 38.5 55 -4.6 23.7
11:05 1014 29.94 843 24.89 3.5 38.3 55 -4.7 23.5
11:10 1014 29.94 843 24.89 3.2 37.8 57 -4.4 24
11:15 1014 29.94 843 24.89 3.3 37.9 54 -5.1 22.9
11:20 1014 29.94 843 24.89 3.8 38.8 56 -4.3 24.3
11:25 1014 29.94 843 24.89 3.8 38.8 56 -4.2 24.5
11:30 1014 29.94 843 24.89 3.7 38.7 57 -4 24.8
11:35 1014 29.94 843 24.89 3.3 37.9 59 -3.9 24.9
11:40 1014 29.94 843 24.89 3 37.3 62 -3.6 25.5
11:45 1014 29.94 843 24.89 3.2 37.8 60 -3.7 25.4
11:50 1014 29.94 843 24.89 3.4 38 61 -3.6 25.6
11:55 1014 29.94 843 24.89 3.4 38.1 60 -3.7 25.3
12:00 1014 29.94 843 24.89 3.6 38.5 58 -3.8 25.1
12:05 1014 29.94 843 24.89 3.5 38.3 59 -3.8 25.1
12:10 1014 29.94 843 24.89 3.6 38.4 57 -4.1 24.7
12:15 1014 29.94 843 24.89 4 39.2 55 -4.3 24.2
12:20 1013 29.91 843 24.89 4.3 39.7 54 -4.3 24.2
12:25 1013 29.91 843 24.89 4 39.2 53 -4.7 23.6
12:30 1013 29.91 843 24.89 3.9 39 52 -5.2 22.7
12:35 1013 29.91 843 24.89 3.9 39.1 51 -5.3 22.4
12:40 1013 29.91 842 24.86 4.2 39.5 51 -5.2 22.6
12:45 1013 29.91 842 24.86 4 39.2 51 -5.2 22.6
12:50 1013 29.91 842 24.86 4 39.1 52 -5 23
12:55 1013 29.91 842 24.86 3.9 39.1 52 -4.9 23.1
13:00 1013 29.91 842 24.86 4 39.1 52 -4.9 23.1
13:05 1013 29.91 842 24.86 3.9 38.9 53 -4.9 23.1
13:10 1013 29.91 842 24.86 4 39.2 52 -4.9 23.1
13:15 1013 29.91 842 24.86 3.8 38.9 53 -4.9 23.1
13:20 1013 29.91 842 24.86 3.6 38.5 54 -4.7 23.5
13:25 1013 29.91 842 24.86 4 39.3 54 -4.4 24
13:30 1013 29.91 842 24.86 4.2 39.6 58 -3.3 26.1
13:35 1013 29.91 842 24.86 3.7 38.7 59 -3.5 25.7
13:40 1013 29.91 842 24.86 3.5 38.2 63 -2.9 26.8
13:45 1013 29.91 842 24.86 3 37.4 69 -2.2 28.1
13:50 1013 29.91 842 24.86 2.5 36.6 73 -1.8 28.8
13:55 1013 29.91 842 24.86 2.4 36.3 75 -1.6 29.1
14:00 1013 29.91 842 24.86 2.1 35.8 79 -1.2 29.8
14:05 1013 29.91 842 24.86 1.6 34.9 82 -1.2 29.9
14:10 1013 29.91 842 24.86 1.2 34.2 84 -1.1 30
14:15 1013 29.91 842 24.86 0.9 33.7 86 -1.2 29.8
14:20 1013 29.91 842 24.86 0.8 33.5 86 -1.3 29.6
14:25 1013 29.91 842 24.86 0.5 32.9 88 -1.3 29.7
14:30 1013 29.91 842 24.86 0.3 32.5 88 -1.5 29.3
14:35 1013 29.91 842 24.86 0.1 32.2 89 -1.5 29.2
14:40 1013 29.91 842 24.86 0 32 88 -1.8 28.8
14:45 1013 29.91 842 24.86 -0.2 31.7 88 -1.9 28.5
14:50 1013 29.91 842 24.86 -0.5 31.1 90 -2 28.4
14:55 1013 29.91 842 24.86 -0.5 31.1 91 -1.8 28.7
15:00 1013 29.91 842 24.86 -0.4 31.2 91 -1.8 28.8
15:05 1013 29.91 842 24.86 -0.4 31.2 91 -1.8 28.8
15:10 1013 29.91 842 24.86 -0.6 30.9 91 -1.9 28.6
15:15 1013 29.91 842 24.86 -0.5 31 91 -1.8 28.8
15:20 1013 29.91 842 24.86 -0.4 31.3 91 -1.7 28.9
15:25 1013 29.91 843 24.89 -0.3 31.5 91 -1.6 29.1
15:30 1013 29.91 843 24.89 -0.1 31.8 90 -1.6 29.2
15:35 1013 29.91 843 24.89 -0 32 89 -1.6 29.2
15:40 1013 29.91 843 24.89 -0.1 31.9 90 -1.5 29.2
15:45 1013 29.91 843 24.89 -0 31.9 90 -1.5 29.3
15:50 1014 29.94 843 24.89 -0.1 31.8 90 -1.6 29.1
15:55 1014 29.94 843 24.89 -0.3 31.5 90 -1.7 29
16:00 1014 29.94 843 24.89 -0.3 31.4 90 -1.7 28.9
16:05 1014 29.94 843 24.89 -0.2 31.7 90 -1.6 29.1
16:10 1014 29.94 843 24.89 -0.2 31.7 90 -1.5 29.2
16:15 1014 29.94 843 24.89 -0.2 31.7 91 -1.5 29.3
16:20 1014 29.94 843 24.89 -0.1 31.8 91 -1.4 29.4
16:25 1014 29.94 843 24.89 -0.1 31.8 91 -1.5 29.3
16:30 1014 29.94 843 24.89 -0.1 31.8 91 -1.4 29.5
16:35 1014 29.94 843 24.89 -0 32 91 -1.3 29.7
16:40 1014 29.94 843 24.89 0.1 32.1 90 -1.3 29.6
16:45 1014 29.94 843 24.89 0.1 32.2 90 -1.3 29.6
16:50 1014 29.94 843 24.89 0.1 32.1 90 -1.4 29.5
16:55 1014 29.94 843 24.89 0.1 32.2 90 -1.3 29.6
17:00 1014 29.94 843 24.89 0.2 32.3 89 -1.3 29.6
17:05 1014 29.94 843 24.89 0.3 32.5 89 -1.4 29.4
17:10 1014 29.94 843 24.89 0.3 32.6 89 -1.3 29.6
17:15 1014 29.94 843 24.89 0.4 32.7 88 -1.4 29.5
17:20 1014 29.94 843 24.89 0.5 32.9 86 -1.6 29.1
17:25 1014 29.94 843 24.89 0.6 33 85 -1.6 29
17:30 1014 29.94 843 24.89 0.5 33 83 -2 28.5
17:35 1014 29.94 843 24.89 0.2 32.4 87 -1.7 28.9
17:40 1014 29.94 843 24.89 0.6 33 83 -2.1 28.3
17:45 1013 29.91 843 24.89 0.8 33.5 81 -2 28.3
17:50 1013 29.91 843 24.89 0.6 33.1 83 -2 28.4
17:55 1013 29.91 843 24.89 0.5 32.9 83 -2.1 28.2
18:00 1013 29.91 843 24.89 0.2 32.4 84 -2.1 28.3
18:05 1014 29.94 843 24.89 0.3 32.6 82 -2.4 27.7
18:10 1014 29.94 843 24.89 0.1 32.3 84 -2.2 28.1
18:15 1013 29.91 843 24.89 0.3 32.5 84 -2.1 28.3
18:20 1013 29.91 843 24.89 0.6 33 82 -2.1 28.2
18:25 1013 29.91 843 24.89 1 33.8 78 -2.4 27.6
18:30 1013 29.91 842 24.86 0.9 33.7 79 -2.3 27.9
18:35 1013 29.91 843 24.89 1.5 34.7 76 -2.3 27.9
18:40 1013 29.91 843 24.89 1.5 34.8 77 -2.1 28.2
18:45 1013 29.91 842 24.86 1.3 34.4 75 -2.7 27.2
18:50 1013 29.91 842 24.86 1 33.8 75 -3 26.6
18:55 1013 29.91 842 24.86 1 33.7 77 -2.7 27.2
19:00 1013 29.91 842 24.86 1.1 34 75 -2.9 26.8
19:05 1013 29.91 842 24.86 0.7 33.3 78 -2.8 27
19:10 1013 29.91 842 24.86 0.2 32.4 80 -2.8 26.9
19:15 1013 29.91 842 24.86 0 32.1 80 -3 26.5
19:20 1013 29.91 842 24.86 -0.2 31.7 81 -3 26.6
19:25 1013 29.91 842 24.86 -0.3 31.4 85 -2.6 27.4
19:30 1013 29.91 842 24.86 -0.6 30.9 87 -2.6 27.4
19:35 1013 29.91 842 24.86 -0.7 30.8 87 -2.6 27.4
19:40 1013 29.91 842 24.86 -0.7 30.8 87 -2.5 27.4
19:45 1013 29.91 843 24.89 -0.7 30.8 87 -2.5 27.4
19:50 1013 29.91 843 24.89 -0.8 30.5 88 -2.6 27.3
19:55 1013 29.91 843 24.89 -0.9 30.3 88 -2.7 27.2
20:00 1014 29.94 843 24.89 -1 30.1 89 -2.7 27.2
20:05 1014 29.94 843 24.89 -1 30.1 89 -2.6 27.2
20:10 1014 29.94 843 24.89 -1 30.2 89 -2.6 27.3
20:15 1014 29.94 843 24.89 -1.1 30.1 89 -2.6 27.3
20:20 1014 29.94 843 24.89 -1.2 29.8 90 -2.7 27.1
20:25 1014 29.94 843 24.89 -1.3 29.6 90 -2.7 27.1
20:30 1014 29.94 843 24.89 -1.3 29.7 90 -2.8 27
20:35 1014 29.94 843 24.89 -1.6 29.2 89 -3.1 26.4
20:40 1014 29.94 843 24.89 -2 28.3 90 -3.5 25.7
20:45 1014 29.94 843 24.89 -2.4 27.7 89 -4 24.8
20:50 1014 29.94 843 24.89 -2.6 27.4 89 -4.1 24.5
20:55 1014 29.94 843 24.89 -2.6 27.4 87 -4.4 24.1
21:00 1014 29.94 843 24.89 -2.5 27.5 87 -4.4 24.1
21:05 1014 29.94 843 24.89 -2.3 27.9 86 -4.3 24.3
21:10 1013 29.91 843 24.89 -2.1 28.2 86 -4.2 24.5
21:15 1013 29.91 843 24.89 -2 28.5 85 -4.2 24.4
21:20 1013 29.91 843 24.89 -2 28.5 85 -4.2 24.5
21:25 1013 29.91 843 24.89 -2.1 28.3 85 -4.3 24.3
21:30 1013 29.91 843 24.89 -2.1 28.2 85 -4.3 24.3
21:35 1013 29.91 843 24.89 -2.1 28.2 85 -4.3 24.2
21:40 1013 29.91 843 24.89 -2.1 28.3 85 -4.3 24.3
21:45 1013 29.91 843 24.89 -2.4 27.7 86 -4.4 24.1
21:50 1013 29.91 843 24.89 -2.6 27.4 86 -4.7 23.6
21:55 1013 29.91 843 24.89 -2.3 27.8 82 -5 23.1
22:00 1013 29.91 843 24.89 -2 28.4 82 -4.7 23.5
22:05 1013 29.91 843 24.89 -2 28.3 82 -4.8 23.4
22:10 1013 29.91 843 24.89 -2.2 28 82 -4.8 23.4
22:15 1013 29.91 843 24.89 -2.5 27.5 83 -5 23
22:20 1013 29.91 843 24.89 -2.9 26.8 85 -5.1 22.9
22:25 1013 29.91 843 24.89 -3 26.7 85 -5.1 22.8
22:30 1013 29.91 843 24.89 -2.9 26.8 85 -5.1 22.9
22:35 1013 29.91 843 24.89 -2.8 26.9 86 -4.9 23.2
22:40 1013 29.91 843 24.89 -2.8 27 85 -4.9 23.2
22:45 1013 29.91 843 24.89 -3 26.7 86 -4.9 23.1
22:50 1013 29.91 842 24.86 -3.1 26.5 87 -5 23.1
22:55 1013 29.91 842 24.86 -3.2 26.2 88 -5 23.1
23:00 1013 29.91 842 24.86 -3.2 26.3 88 -4.9 23.1
23:05 1013 29.91 842 24.86 -3.1 26.4 87 -4.9 23.1
23:10 1013 29.91 842 24.86 -3.1 26.4 87 -5 23.1
23:15 1013 29.91 842 24.86 -3.1 26.4 87 -5 22.9
23:20 1013 29.91 842 24.86 -3.1 26.4 87 -5 22.9
23:25 1013 29.91 842 24.86 -3 26.5 86 -5 23
23:30 1013 29.91 842 24.86 -3 26.5 86 -5 22.9
23:35 1013 29.91 842 24.86 -3.1 26.5 86 -5.1 22.8
23:40 1013 29.91 843 24.89 -3.1 26.5 86 -5.2 22.7
23:45 1013 29.91 843 24.89 -3.1 26.4 86 -5.2 22.6
23:50 1013 29.91 843 24.89 -3.2 26.2 85 -5.3 22.4
23:55 1013 29.91 843 24.89 -3.4 25.9 84 -5.7 21.8
24:00 1013 29.91 842 24.86 -3.6 25.6 84 -5.9 21.4